createdAt,value
2022-11-05T00:03:45.276Z,9.58
2022-11-05T00:11:19.009Z,9.58
2022-11-05T00:19:07.390Z,9.56
2022-11-05T00:26:41.125Z,9.55
2022-11-05T00:34:17.297Z,9.53
2022-11-05T00:42:11.261Z,9.53
2022-11-05T00:49:46.300Z,9.53
2022-11-05T00:57:19.967Z,9.54
2022-11-05T01:04:55.005Z,9.53
2022-11-05T01:12:28.927Z,9.52
2022-11-05T01:20:04.187Z,9.55
2022-11-05T01:27:37.993Z,9.54
2022-11-05T01:35:16.057Z,9.56
2022-11-05T01:42:50.451Z,9.54
2022-11-05T01:50:34.601Z,9.47
2022-11-05T01:58:12.829Z,9.40
2022-11-05T02:05:50.725Z,9.37
2022-11-05T02:13:24.364Z,9.28
2022-11-05T02:21:21.060Z,9.24
2022-11-05T02:29:18.496Z,9.17
2022-11-05T02:37:03.489Z,9.14
2022-11-05T02:44:45.934Z,9.10
2022-11-05T02:52:26.284Z,9.07
2022-11-05T03:00:04.100Z,9.02
2022-11-05T03:07:50.465Z,9.00
2022-11-05T03:15:40.464Z,9.02
2022-11-05T03:23:24.391Z,9.00
2022-11-05T03:30:59.347Z,8.98
2022-11-05T03:38:38.920Z,8.92
2022-11-05T03:46:18.754Z,8.92
2022-11-05T03:53:58.639Z,8.89
2022-11-05T04:01:32.816Z,8.86
2022-11-05T04:09:25.319Z,8.82
2022-11-05T04:17:09.536Z,8.77
2022-11-05T04:24:44.839Z,8.79
2022-11-05T04:32:18.513Z,8.71
2022-11-05T04:39:53.627Z,8.64
2022-11-05T04:47:27.288Z,8.61
2022-11-05T04:55:02.432Z,8.57
2022-11-05T05:02:37.538Z,8.52
2022-11-05T05:10:12.766Z,8.50
2022-11-05T05:17:51.396Z,8.48
2022-11-05T05:25:26.498Z,8.44
2022-11-05T05:33:02.978Z,8.36
2022-11-05T05:40:37.963Z,8.29
2022-11-05T05:48:11.575Z,8.20
2022-11-05T05:55:46.538Z,8.19
2022-11-05T06:03:20.682Z,8.20
2022-11-05T06:10:55.707Z,8.20
2022-11-05T06:18:29.608Z,8.15
2022-11-05T06:26:07.136Z,8.13
2022-11-05T06:33:41.410Z,8.11
2022-11-05T06:41:16.713Z,8.09
2022-11-05T06:48:51.021Z,8.05
2022-11-05T06:56:26.136Z,8.07
2022-11-05T07:03:59.852Z,8.03
2022-11-05T07:11:34.833Z,7.98
2022-11-05T07:19:08.502Z,7.96
2022-11-05T07:26:43.619Z,7.97
2022-11-05T07:34:17.639Z,7.93
2022-11-05T07:41:54.923Z,7.93
2022-11-05T07:49:28.607Z,7.97
2022-11-05T07:57:03.531Z,7.98
2022-11-05T08:04:37.189Z,8.06
2022-11-05T08:12:12.221Z,8.12
2022-11-05T08:19:45.834Z,8.15
2022-11-05T08:27:20.866Z,8.26
2022-11-05T08:34:54.505Z,8.69
2022-11-05T08:42:29.897Z,9.11
2022-11-05T08:50:03.843Z,9.13
2022-11-05T08:57:38.804Z,9.15
2022-11-05T09:05:12.370Z,9.34
2022-11-05T09:12:47.512Z,9.39
2022-11-05T09:20:21.554Z,9.43
2022-11-05T09:28:07.803Z,9.45
2022-11-05T09:35:44.005Z,9.35
2022-11-05T09:43:26.094Z,9.32
2022-11-05T09:51:05.710Z,9.40
2022-11-05T09:58:44.971Z,9.48
2022-11-05T10:06:22.659Z,9.53
2022-11-05T10:14:00.597Z,9.64
2022-11-05T10:22:04.325Z,9.79
2022-11-05T10:29:32.563Z,9.85
2022-11-05T10:37:07.744Z,9.94
2022-11-05T10:44:48.825Z,10.10
2022-11-05T10:52:25.808Z,10.22
2022-11-05T11:00:24.034Z,10.28
2022-11-05T11:08:01.607Z,10.40
2022-11-05T11:15:37.450Z,10.60
2022-11-05T11:23:13.976Z,10.70
2022-11-05T11:30:52.617Z,10.85
2022-11-05T11:38:30.191Z,10.96
2022-11-05T11:46:09.927Z,11.07
2022-11-05T11:53:49.263Z,11.14
2022-11-05T12:01:55.742Z,11.25
2022-11-05T12:09:38.406Z,11.31
2022-11-05T12:17:33.260Z,11.30
2022-11-05T12:25:27.788Z,11.34
2022-11-05T12:33:17.320Z,11.36
2022-11-05T12:41:06.980Z,11.40
2022-11-05T12:48:53.811Z,11.33
2022-11-05T12:56:35.321Z,11.33
2022-11-05T13:04:16.346Z,11.19
2022-11-05T13:11:55.502Z,11.13
2022-11-05T13:19:33.071Z,11.14
2022-11-05T13:27:31.821Z,11.10
2022-11-05T13:35:09.086Z,11.08
2022-11-05T13:43:11.833Z,11.09
2022-11-05T13:51:03.741Z,11.12
2022-11-05T13:58:58.725Z,11.12
2022-11-05T14:06:36.062Z,11.08
2022-11-05T14:14:19.115Z,11.01
2022-11-05T14:21:54.455Z,10.94
2022-11-05T14:29:39.595Z,10.88
2022-11-05T14:37:37.197Z,10.77
2022-11-05T14:45:27.197Z,10.67
2022-11-05T14:53:10.831Z,10.54
2022-11-05T15:00:49.155Z,10.44
2022-11-05T15:08:32.807Z,10.29
2022-11-05T15:16:08.901Z,10.17
2022-11-05T15:23:45.549Z,10.04
2022-11-05T15:31:31.913Z,9.92
2022-11-05T15:39:29.359Z,9.79
2022-11-05T15:47:16.007Z,9.62
2022-11-05T15:55:08.895Z,9.47
2022-11-05T16:02:44.595Z,9.34
2022-11-05T16:10:20.464Z,9.21
2022-11-05T16:17:58.809Z,9.08
2022-11-05T16:25:40.213Z,8.96
2022-11-05T16:33:15.347Z,8.83
2022-11-05T16:40:49.127Z,8.74
2022-11-05T16:48:24.255Z,8.66
2022-11-05T16:55:58.060Z,8.60
2022-11-05T17:03:33.176Z,8.49
2022-11-05T17:11:07.611Z,8.42
2022-11-05T17:18:43.691Z,8.30
2022-11-05T17:26:17.559Z,8.18
2022-11-05T17:33:56.697Z,8.05
2022-11-05T17:41:30.792Z,7.95
2022-11-05T17:49:06.598Z,7.82
2022-11-05T17:56:44.855Z,7.71
2022-11-05T18:04:20.056Z,7.61
2022-11-05T18:11:53.905Z,7.53
2022-11-05T18:19:29.383Z,7.40
2022-11-05T18:27:03.106Z,7.27
2022-11-05T18:34:38.263Z,7.17
2022-11-05T18:42:12.026Z,7.08
2022-11-05T18:49:48.314Z,6.97
2022-11-05T18:57:21.968Z,6.88
2022-11-05T19:12:50.882Z,6.70
2022-11-05T19:20:26.079Z,6.62
2022-11-05T19:27:59.679Z,6.53
2022-11-05T19:35:40.920Z,6.47
2022-11-05T19:43:15.183Z,6.32
2022-11-05T19:50:51.387Z,6.22
2022-11-05T19:58:25.089Z,6.15
2022-11-05T20:06:04.509Z,6.08
2022-11-05T20:13:38.253Z,6.00
2022-11-05T20:21:13.291Z,5.93
2022-11-05T20:28:47.157Z,5.86
2022-11-05T20:36:24.057Z,5.78
2022-11-05T20:43:57.699Z,5.73
2022-11-05T20:51:32.718Z,5.67
2022-11-05T20:59:06.808Z,5.56
2022-11-05T21:06:41.927Z,5.48
2022-11-05T21:14:15.824Z,5.43
2022-11-05T21:21:50.925Z,5.39
2022-11-05T21:29:24.835Z,5.32
2022-11-05T21:36:59.976Z,5.31
2022-11-05T21:44:33.805Z,5.22
2022-11-05T21:52:29.873Z,5.19
2022-11-05T22:00:06.998Z,5.17
2022-11-05T22:07:42.448Z,5.12
2022-11-05T22:15:16.266Z,5.06
2022-11-05T22:22:51.272Z,5.02
2022-11-05T22:30:25.018Z,4.98
2022-11-05T22:38:00.042Z,4.96
2022-11-05T22:45:36.489Z,4.90
2022-11-05T22:53:12.758Z,4.88
2022-11-05T23:00:46.501Z,4.89
2022-11-05T23:08:38.929Z,4.88
2022-11-05T23:16:30.633Z,4.88
2022-11-05T23:24:06.426Z,4.89
2022-11-05T23:31:57.477Z,4.87
2022-11-05T23:39:33.451Z,4.88
2022-11-05T23:47:29.493Z,4.87
2022-11-05T23:55:06.179Z,4.87
